Time;durP1;ratioP1;P1;durP2;ratioP2;P2;SDS_P1;SDS_P2;PMS_P1;PMS_P2;Temp;Humidity;BMP_temperature;BMP_pressure;BME280_temperature;BME280_humidity;BME280_pressure;Samples;Min_cycle;Max_cycle;Signal;HPM_P1;HPM_P2
2021/01/31 00:00:29;;;;;;;64.22;29.05;;;;;;;-3.08;91.79;97321.94;3441779;28;20573;-47
2021/01/31 00:02:13;;;;;;;73.22;28.38;;;;;;;-3.11;91.65;97314.25;3439216;28;20046;-47
2021/01/31 00:03:55;;;;;;;68.80;30.40;;;;;;;-3.13;91.80;97309.94;3441130;28;20089;-47
2021/01/31 00:05:36;;;;;;;72.18;29.50;;;;;;;-3.14;91.62;97277.81;3440290;28;20146;-47
2021/01/31 00:07:18;;;;;;;80.05;31.23;;;;;;;-3.15;91.93;97233.84;3439071;28;20054;-47
2021/01/31 00:09:01;;;;;;;77.30;30.08;;;;;;;-3.14;91.86;97232.19;3438343;28;20046;-47
2021/01/31 00:10:43;;;;;;;81.38;31.40;;;;;;;-3.13;91.95;97247.44;3435191;28;20057;-48
2021/01/31 00:12:25;;;;;;;83.20;31.35;;;;;;;-3.13;92.00;97255.03;3441380;28;20050;-47
2021/01/31 00:14:07;;;;;;;73.63;29.83;;;;;;;-3.10;91.95;97266.94;3438951;28;20419;-47
2021/01/31 00:15:50;;;;;;;78.55;31.70;;;;;;;-3.12;91.80;97277.03;3440120;28;20046;-48
2021/01/31 00:17:32;;;;;;;79.18;32.67;;;;;;;-3.11;91.79;97283.84;3438532;28;20161;-47
2021/01/31 00:19:13;;;;;;;78.63;32.80;;;;;;;-3.11;91.79;97305.78;3438736;28;20046;-47
2021/01/31 00:20:57;;;;;;;78.50;31.55;;;;;;;-3.13;91.44;97310.84;3441030;28;20057;-48
2021/01/31 00:22:39;;;;;;;77.53;28.63;;;;;;;-3.14;91.42;97309.09;3438999;28;20518;-47
2021/01/31 00:24:20;;;;;;;78.20;31.02;;;;;;;-3.14;91.52;97313.31;3440449;28;20054;-47
2021/01/31 00:26:03;;;;;;;75.07;30.33;;;;;;;-3.16;91.16;97310.72;3439140;28;20077;-51
2021/01/31 00:27:45;;;;;;;72.28;29.90;;;;;;;-3.17;91.27;97313.22;3437318;28;20057;-50
2021/01/31 00:29:27;;;;;;;74.60;29.48;;;;;;;-3.18;91.23;97327.59;3439705;28;20104;-50
2021/01/31 00:31:08;;;;;;;66.68;27.38;;;;;;;-3.20;91.10;97329.19;3436964;28;20050;-49
2021/01/31 00:32:50;;;;;;;58.85;26.40;;;;;;;-3.22;91.20;97326.63;3440852;28;20607;-53
2021/01/31 00:34:32;;;;;;;56.90;25.88;;;;;;;-3.22;91.35;97339.31;3437949;28;20506;-52
2021/01/31 00:36:13;;;;;;;70.65;27.75;;;;;;;-3.22;91.29;97333.34;3440315;28;20046;-50
2021/01/31 00:37:55;;;;;;;64.97;27.35;;;;;;;-3.24;91.12;97350.19;3437082;28;20471;-50
2021/01/31 00:39:37;;;;;;;62.50;27.17;;;;;;;-3.24;91.41;97340.91;3438360;28;20065;-52
2021/01/31 00:41:19;;;;;;;62.92;27.13;;;;;;;-3.23;91.59;97336.72;3440934;28;20057;-51
2021/01/31 00:43:02;;;;;;;64.10;27.08;;;;;;;-3.24;90.91;97338.38;3437736;28;20046;-52
2021/01/31 00:44:45;;;;;;;58.58;25.65;;;;;;;-3.28;90.84;97334.03;3438043;28;20144;-50
2021/01/31 00:46:26;;;;;;;60.80;27.63;;;;;;;-3.31;90.96;97344.06;3437357;28;20046;-48
2021/01/31 00:48:09;;;;;;;65.53;29.15;;;;;;;-3.33;91.16;97345.72;3439882;28;20400;-50
2021/01/31 00:49:51;;;;;;;62.55;28.85;;;;;;;-3.32;90.99;97354.16;3439431;28;20559;-51
2021/01/31 00:51:33;;;;;;;64.13;27.73;;;;;;;-3.31;91.16;97355.91;3435817;28;20086;-50
2021/01/31 00:53:14;;;;;;;67.60;28.88;;;;;;;-3.31;91.06;97360.97;3440211;28;20088;-52
2021/01/31 00:54:56;;;;;;;71.03;30.00;;;;;;;-3.33;91.08;97357.53;3438364;28;20046;-51
2021/01/31 00:56:38;;;;;;;69.60;31.23;;;;;;;-3.34;90.85;97365.94;3439182;28;20305;-51
2021/01/31 00:58:20;;;;;;;79.28;30.65;;;;;;;-3.38;90.65;97373.47;3435940;28;20523;-51
2021/01/31 01:00:06;;;;;;;74.63;33.10;;;;;;;-3.41;90.73;97370.84;3438218;28;20053;-50
2021/01/31 01:01:47;;;;;;;72.75;30.67;;;;;;;-3.42;90.48;97378.38;3438737;28;20526;-49
2021/01/31 01:03:29;;;;;;;76.10;33.10;;;;;;;-3.45;90.38;97383.34;3438157;28;20097;-50
2021/01/31 01:05:12;;;;;;;74.40;30.73;;;;;;;-3.48;90.73;97385.78;3440905;28;20053;-50
2021/01/31 01:06:53;;;;;;;67.85;27.88;;;;;;;-3.49;90.58;97387.47;3438834;28;20054;-50
2021/01/31 01:08:35;;;;;;;72.82;30.73;;;;;;;-3.47;90.56;97402.72;3439434;28;20090;-49
2021/01/31 01:10:20;;;;;;;67.97;30.17;;;;;;;-3.46;90.65;97394.31;3441108;28;20054;-49
2021/01/31 01:12:02;;;;;;;64.90;29.15;;;;;;;-3.48;90.12;97396.81;3438928;28;20491;-49
2021/01/31 01:13:44;;;;;;;57.85;25.00;;;;;;;-3.48;89.88;97396.81;3441404;28;20054;-50
2021/01/31 01:15:26;;;;;;;54.45;25.40;;;;;;;-3.51;89.55;97395.84;3439034;28;20069;-49
2021/01/31 01:17:08;;;;;;;56.25;24.65;;;;;;;-3.54;89.68;97399.13;3440547;28;20435;-49
2021/01/31 01:18:49;;;;;;;61.17;25.75;;;;;;;-3.57;89.66;97401.56;3438646;28;20054;-49
2021/01/31 01:20:31;;;;;;;55.88;24.20;;;;;;;-3.59;89.80;97408.25;3439051;28;20247;-53
2021/01/31 01:22:14;;;;;;;47.53;22.13;;;;;;;-3.59;89.69;97413.31;3440982;28;20052;-52
2021/01/31 01:23:55;;;;;;;49.50;22.83;;;;;;;-3.62;89.32;97416.63;3439233;28;20065;-46
2021/01/31 01:25:37;;;;;;;51.00;21.73;;;;;;;-3.63;89.58;97412.34;3441024;28;20109;-48
2021/01/31 01:27:20;;;;;;;50.55;22.15;;;;;;;-3.62;89.71;97411.56;3439145;28;20042;-47
2021/01/31 01:29:02;;;;;;;46.00;21.23;;;;;;;-3.60;89.81;97419.22;3442148;28;20052;-48
2021/01/31 01:30:43;;;;;;;47.13;22.17;;;;;;;-3.61;89.65;97423.41;3440549;28;20057;-47
2021/01/31 01:32:25;;;;;;;47.47;23.05;;;;;;;-3.61;89.85;97415.78;3441447;28;20416;-50
2021/01/31 01:34:07;;;;;;;50.13;22.08;;;;;;;-3.59;90.01;97416.72;3442791;28;20061;-48
2021/01/31 01:35:49;;;;;;;42.53;20.38;;;;;;;-3.59;89.42;97429.41;3441434;28;20101;-47
2021/01/31 01:37:30;;;;;;;46.50;20.27;;;;;;;-3.60;89.38;97435.28;3443081;28;20062;-47
2021/01/31 01:39:12;;;;;;;46.47;18.13;;;;;;;-3.60;89.27;97435.28;3441696;28;20046;-48
2021/01/31 01:40:55;;;;;;;37.53;17.02;;;;;;;-3.61;89.35;97448.72;3441988;28;20053;-47
2021/01/31 01:42:39;;;;;;;40.75;16.92;;;;;;;-3.65;89.21;97435.94;3443372;28;20519;-47
2021/01/31 01:44:21;;;;;;;34.63;14.65;;;;;;;-3.64;89.38;97445.25;3441245;28;20050;-50
2021/01/31 01:46:23;;;;;;;34.85;16.33;;;;;;;-3.63;89.51;97450.34;3443438;28;20073;-49
2021/01/31 01:48:11;;;;;;;33.80;14.27;;;;;;;-3.64;89.34;97458.78;3441040;28;20424;-49
2021/01/31 01:49:57;;;;;;;32.95;15.65;;;;;;;-3.65;89.34;97458.75;3441434;28;20057;-49
2021/01/31 01:51:43;;;;;;;38.60;17.70;;;;;;;-3.66;89.33;97457.88;3443428;28;20054;-49
2021/01/31 01:53:27;;;;;;;31.23;14.77;;;;;;;-3.66;89.13;97469.66;3441052;28;20574;-52
2021/01/31 01:55:12;;;;;;;36.38;16.30;;;;;;;-3.66;89.32;97465.47;3443567;28;20046;-50
2021/01/31 01:56:59;;;;;;;30.38;14.35;;;;;;;-3.66;89.33;97465.47;3439155;28;20050;-50
2021/01/31 01:58:42;;;;;;;30.90;13.50;;;;;;;-3.63;89.41;97480.75;3442008;28;20050;-49
2021/01/31 02:00:24;;;;;;;28.77;13.68;;;;;;;-3.61;89.61;97479.13;3443204;28;20051;-50
2021/01/31 02:02:15;;;;;;;27.38;12.25;;;;;;;-3.62;89.05;97482.50;3439755;28;20138;-50
2021/01/31 02:04:00;;;;;;;27.60;13.02;;;;;;;-3.63;88.94;97487.50;3443432;28;20503;-49
2021/01/31 02:05:46;;;;;;;25.73;11.88;;;;;;;-3.66;88.80;97477.25;3441104;28;20061;-51
2021/01/31 02:07:28;;;;;;;24.80;12.25;;;;;;;-3.69;89.30;97494.91;3442368;28;20073;-50
2021/01/31 02:09:10;;;;;;;30.30;13.60;;;;;;;-3.69;89.67;97489.84;3441859;28;20058;-49
2021/01/31 02:10:51;;;;;;;22.98;9.93;;;;;;;-3.69;89.44;97502.53;3441097;28;20064;-51
2021/01/31 02:12:33;;;;;;;24.35;12.45;;;;;;;-3.72;89.48;97503.25;3429947;28;20109;-51
2021/01/31 02:14:16;;;;;;;26.85;12.63;;;;;;;-3.74;89.84;97497.28;3438709;28;20042;-49
2021/01/31 02:15:59;;;;;;;25.63;11.52;;;;;;;-3.73;90.12;97503.19;3443709;28;20069;-50
2021/01/31 02:17:58;;;;;;;30.48;13.45;;;;;;;-3.74;89.98;97497.28;3441275;28;20046;-48
2021/01/31 02:20:13;;;;;;;22.33;10.48;;;;;;;-3.74;89.86;97506.56;3440906;28;20085;-49
2021/01/31 02:22:04;;;;;;;24.17;11.73;;;;;;;-3.72;90.19;97510.00;3442065;28;20057;-52
2021/01/31 02:24:21;;;;;;;22.77;10.15;;;;;;;-3.73;89.71;97515.88;3440255;28;20058;-49
2021/01/31 02:26:06;;;;;;;20.92;10.05;;;;;;;-3.72;90.10;97523.53;3440590;28;20054;-49
2021/01/31 02:28:20;;;;;;;23.35;10.45;;;;;;;-3.74;89.69;97525.16;3442940;28;20054;-49
2021/01/31 02:30:20;;;;;;;18.88;9.98;;;;;;;-3.73;89.58;97534.44;3441150;28;20054;-49
2021/01/31 02:32:36;;;;;;;20.98;9.70;;;;;;;-3.73;89.72;97538.66;3436920;28;20054;-49
2021/01/31 02:34:27;;;;;;;19.42;9.48;;;;;;;-3.72;89.87;97538.72;3441954;28;20118;-47
2021/01/31 02:36:17;;;;;;;21.73;9.75;;;;;;;-3.72;89.40;97543.78;3429338;28;20113;-46
2021/01/31 02:38:09;;;;;;;20.17;9.95;;;;;;;-3.72;89.32;97555.59;3437161;28;20092;-46
2021/01/31 02:39:56;;;;;;;18.02;8.75;;;;;;;-3.74;89.27;97564.81;3441506;28;20058;-49
2021/01/31 02:41:45;;;;;;;22.10;9.95;;;;;;;-3.74;89.58;97558.09;3438999;28;20090;-47
2021/01/31 02:43:35;;;;;;;21.70;10.40;;;;;;;-3.74;89.57;97565.69;3440212;28;20228;-47
2021/01/31 02:45:22;;;;;;;20.23;10.02;;;;;;;-3.75;89.55;97571.53;3442446;28;20526;-47
2021/01/31 02:47:10;;;;;;;21.52;9.93;;;;;;;-3.75;89.36;97576.59;3440011;28;20057;-47
2021/01/31 02:49:00;;;;;;;20.92;8.82;;;;;;;-3.76;89.67;97587.56;3442024;28;20171;-48
2021/01/31 02:50:48;;;;;;;24.40;9.15;;;;;;;-3.78;89.23;97579.91;3440969;28;20054;-47
2021/01/31 02:52:37;;;;;;;16.42;8.82;;;;;;;-3.77;89.58;97585.81;3439374;28;20058;-47
2021/01/31 02:54:22;;;;;;;19.52;9.50;;;;;;;-3.81;89.34;97587.38;3442872;28;20401;-47
2021/01/31 02:56:08;;;;;;;19.90;9.48;;;;;;;-3.78;89.48;97604.38;3439275;28;20085;-48
2021/01/31 02:57:56;;;;;;;16.90;8.82;;;;;;;-3.78;89.24;97615.38;3441895;28;20050;-46
2021/01/31 02:59:42;;;;;;;19.77;10.10;;;;;;;-3.77;89.59;97631.44;3440434;28;20507;-47
2021/01/31 03:01:31;;;;;;;22.17;10.13;;;;;;;-3.77;89.42;97644.94;3440290;28;20467;-47
2021/01/31 03:03:19;;;;;;;17.00;8.70;;;;;;;-3.76;89.60;97630.63;3442413;28;20058;-47
2021/01/31 03:05:04;;;;;;;18.85;8.57;;;;;;;-3.74;89.75;97644.22;3440520;28;20054;-47
2021/01/31 03:06:53;;;;;;;18.25;8.27;;;;;;;-3.72;89.77;97644.28;3441758;28;20054;-49
2021/01/31 03:08:39;;;;;;;15.98;8.10;;;;;;;-3.71;89.65;97654.47;3441260;28;20054;-48
2021/01/31 03:10:25;;;;;;;16.77;8.38;;;;;;;-3.71;89.85;97664.59;3440372;28;20046;-47
2021/01/31 03:12:11;;;;;;;18.25;8.38;;;;;;;-3.71;89.82;97668.78;3442843;28;20108;-48
2021/01/31 03:13:56;;;;;;;11.75;5.15;;;;;;;-3.70;89.70;97681.50;3439715;28;20050;-48
2021/01/31 03:15:45;;;;;;;14.52;7.05;;;;;;;-3.70;89.57;97685.72;3441684;28;20093;-47
2021/01/31 03:17:32;;;;;;;12.55;7.45;;;;;;;-3.70;89.84;97695.84;3440842;28;20046;-49
2021/01/31 03:19:17;;;;;;;12.35;6.35;;;;;;;-3.69;89.66;97695.06;3440402;28;20057;-47
2021/01/31 03:21:05;;;;;;;17.85;8.35;;;;;;;-3.71;89.73;97702.59;3442602;28;20050;-47
2021/01/31 03:22:53;;;;;;;15.10;7.90;;;;;;;-3.69;89.99;97707.72;3440298;28;20057;-47
2021/01/31 03:24:37;;;;;;;12.50;6.47;;;;;;;-3.69;90.01;97715.31;3441090;28;20057;-47
2021/01/31 03:26:21;;;;;;;;;;;;;;;-3.69;90.13;97710.25;3441477;28;20461;-49
2021/01/31 03:28:03;;;;;;;15.10;7.38;;;;;;;-3.68;90.17;97711.97;3440146;28;20021;-48
2021/01/31 03:29:45;;;;;;;15.82;7.68;;;;;;;-3.67;90.35;97709.50;3442335;28;20097;-46
2021/01/31 03:31:29;;;;;;;14.65;7.78;;;;;;;-3.65;90.67;97714.63;3438541;28;20047;-48
2021/01/31 03:33:16;;;;;;;14.57;7.07;;;;;;;-3.61;90.44;97721.53;3441909;28;20057;-47
2021/01/31 03:35:02;;;;;;;14.40;7.40;;;;;;;-3.60;90.30;97714.00;3439857;28;20684;-48
2021/01/31 03:36:49;;;;;;;15.40;7.80;;;;;;;-3.59;90.24;97725.88;3440118;28;20054;-47
2021/01/31 03:38:38;;;;;;;16.77;7.93;;;;;;;-3.57;89.82;97736.03;3441813;28;20050;-48
2021/01/31 03:40:23;;;;;;;18.50;8.68;;;;;;;-3.55;89.61;97729.38;3434450;28;20295;-46
2021/01/31 03:42:07;;;;;;;16.13;7.82;;;;;;;-3.54;89.81;97731.09;3431069;28;20050;-47
2021/01/31 03:43:49;;;;;;;18.58;8.32;;;;;;;-3.52;89.44;97732.00;3441054;28;20401;-48
2021/01/31 03:45:36;;;;;;;15.70;8.00;;;;;;;-3.52;89.36;97741.28;3440257;28;20053;-47
2021/01/31 03:47:26;;;;;;;18.27;8.90;;;;;;;-3.52;89.34;97739.59;3428836;28;20523;-48
2021/01/31 03:49:11;;;;;;;16.60;8.15;;;;;;;-3.51;89.05;97740.50;3438255;28;20050;-47
2021/01/31 03:50:53;;;;;;;15.00;7.10;;;;;;;-3.51;88.95;97748.94;3441626;28;20061;-47
2021/01/31 03:52:34;;;;;;;16.17;8.30;;;;;;;-3.52;88.30;97757.34;3438214;28;20089;-47
2021/01/31 03:54:17;;;;;;;15.18;7.30;;;;;;;-3.52;88.72;97748.88;3439873;28;20042;-47
2021/01/31 03:55:59;;;;;;;12.40;6.77;;;;;;;-3.51;88.96;97758.22;3442307;28;20477;-47
2021/01/31 03:57:47;;;;;;;14.35;7.18;;;;;;;-3.52;88.84;97762.41;3440068;28;20291;-47
2021/01/31 03:59:32;;;;;;;12.82;6.03;;;;;;;-3.52;88.49;97769.16;3441872;28;20065;-47
2021/01/31 04:01:14;;;;;;;15.15;7.40;;;;;;;-3.53;88.42;97770.00;3440359;28;20420;-48
2021/01/31 04:03:00;;;;;;;13.95;7.38;;;;;;;-3.55;88.38;97779.16;3439085;28;20077;-46
2021/01/31 04:04:46;;;;;;;14.48;6.72;;;;;;;-3.57;88.38;97784.19;3441700;28;20435;-47
2021/01/31 04:06:32;;;;;;;10.90;6.20;;;;;;;-3.58;88.17;97790.91;3439798;28;20050;-46
2021/01/31 04:08:16;;;;;;;13.82;6.55;;;;;;;-3.59;88.37;97784.16;3441479;28;20511;-49
2021/01/31 04:10:01;;;;;;;16.65;7.95;;;;;;;-3.59;88.17;97788.31;3440300;28;20157;-48
2021/01/31 04:11:44;;;;;;;14.85;6.93;;;;;;;-3.58;88.14;97796.00;3440195;28;20057;-47
2021/01/31 04:13:29;;;;;;;12.90;7.72;;;;;;;-3.59;88.17;97790.88;3440925;28;20042;-47
2021/01/31 04:15:27;;;;;;;13.55;7.22;;;;;;;-3.58;88.35;97801.06;3439770;28;20409;-48
2021/01/31 04:17:09;;;;;;;14.88;7.30;;;;;;;-3.60;87.90;97812.81;3441419;28;20161;-47
2021/01/31 04:18:50;;;;;;;11.20;5.22;;;;;;;-3.61;87.95;97821.19;3440068;28;20104;-48
2021/01/31 04:20:32;;;;;;;14.88;7.75;;;;;;;-3.61;88.22;97815.28;3440639;28;20074;-47
2021/01/31 04:22:14;;;;;;;14.65;6.75;;;;;;;-3.61;88.67;97817.81;3441408;28;20061;-48
2021/01/31 04:23:57;;;;;;;13.60;7.55;;;;;;;-3.59;88.29;97821.28;3439701;28;20058;-47
2021/01/31 04:25:39;;;;;;;15.48;7.50;;;;;;;-3.59;88.59;97823.81;3441916;28;20057;-48
2021/01/31 04:27:21;;;;;;;14.50;7.20;;;;;;;-3.59;88.08;97828.88;3439696;28;20050;-47
2021/01/31 04:29:03;;;;;;;14.63;7.65;;;;;;;-3.61;88.18;97823.75;3441506;28;20466;-48
2021/01/31 04:30:47;;;;;;;14.82;7.05;;;;;;;-3.62;88.23;97831.31;3438563;28;20455;-47
2021/01/31 04:32:28;;;;;;;17.20;7.55;;;;;;;-3.62;88.35;97833.84;3439911;28;20042;-47
2021/01/31 04:34:10;;;;;;;14.27;7.50;;;;;;;-3.62;88.40;97836.38;3440791;28;20055;-48
2021/01/31 04:35:52;;;;;;;16.83;8.23;;;;;;;-3.64;88.15;97838.84;3440009;28;20046;-52
2021/01/31 04:37:34;;;;;;;14.50;7.90;;;;;;;-3.64;88.38;97843.03;3441757;28;20505;-53
2021/01/31 04:39:15;;;;;;;16.95;8.05;;;;;;;-3.62;88.60;97851.56;3438587;28;20129;-49
2021/01/31 04:40:59;;;;;;;15.10;7.22;;;;;;;-3.62;88.56;97854.13;3440985;28;20137;-51
2021/01/31 04:42:41;;;;;;;13.75;7.38;;;;;;;-3.64;88.44;97856.59;3439744;28;20053;-49
2021/01/31 04:44:23;;;;;;;17.10;7.15;;;;;;;-3.65;88.41;97859.91;3439448;28;20058;-50
2021/01/31 04:46:08;;;;;;;16.17;6.97;;;;;;;-3.66;88.52;97865.78;3441863;28;20261;-51
2021/01/31 04:48:09;;;;;;;14.82;7.85;;;;;;;-3.68;88.57;97869.91;3439378;28;20058;-51
2021/01/31 04:50:09;;;;;;;16.15;8.48;;;;;;;-3.66;88.90;97882.66;3440701;28;20042;-51
2021/01/31 04:52:11;;;;;;;17.85;8.50;;;;;;;-3.67;88.91;97889.38;3440855;28;20519;-52
2021/01/31 04:54:06;;;;;;;15.85;7.05;;;;;;;-3.66;89.00;97887.72;3439485;28;20077;-49
2021/01/31 04:56:25;;;;;;;18.13;9.35;;;;;;;-3.63;89.21;97898.84;3440815;28;20043;-52
2021/01/31 04:58:13;;;;;;;21.48;9.07;;;;;;;-3.63;88.91;97903.91;3406822;28;20066;-49
2021/01/31 04:59:58;;;;;;;15.65;7.70;;;;;;;-3.61;89.06;97901.44;3439245;28;20133;-53
2021/01/31 05:01:40;;;;;;;;;;;;;;;-3.61;88.86;97899.75;3440970;28;20054;-52
2021/01/31 05:03:23;;;;;;;17.52;8.63;;;;;;;-3.64;88.92;97906.38;3439192;28;19925;-48
2021/01/31 05:05:16;;;;;;;20.25;9.70;;;;;;;-3.66;88.72;97906.34;3438292;28;20484;-51
2021/01/31 05:07:04;;;;;;;20.65;9.25;;;;;;;-3.65;88.82;97913.13;3441450;28;20500;-50
2021/01/31 05:08:48;;;;;;;15.80;7.03;;;;;;;-3.65;88.82;97919.88;3438177;28;20053;-51
2021/01/31 05:10:30;;;;;;;15.77;7.45;;;;;;;-3.67;88.93;97926.53;3440392;28;20153;-52
2021/01/31 05:12:18;;;;;;;16.73;8.50;;;;;;;-3.66;88.87;97918.13;3438851;28;20499;-52
2021/01/31 05:14:07;;;;;;;24.45;9.50;;;;;;;-3.67;88.88;97931.59;3439365;28;20135;-49
2021/01/31 05:15:58;;;;;;;20.17;9.40;;;;;;;-3.68;88.71;97938.31;3428274;28;20110;-49
2021/01/31 05:17:44;;;;;;;19.90;9.13;;;;;;;-3.70;88.70;97939.94;3436738;28;20058;-49
2021/01/31 05:19:30;;;;;;;22.92;12.15;;;;;;;-3.72;88.66;97948.28;3440691;28;20440;-48
2021/01/31 05:21:14;;;;;;;22.52;9.48;;;;;;;-3.72;88.70;97954.22;3440023;28;20058;-47
2021/01/31 05:22:59;;;;;;;24.20;10.75;;;;;;;-3.74;88.80;97957.50;3438995;28;20635;-47
2021/01/31 05:24:41;;;;;;;26.02;10.90;;;;;;;-3.76;89.26;97959.97;3441317;28;20109;-49
2021/01/31 05:26:23;;;;;;;20.58;8.95;;;;;;;-3.75;89.15;97976.88;3438813;28;20538;-47
2021/01/31 05:28:07;;;;;;;22.10;11.25;;;;;;;-3.76;88.94;97976.00;3440886;28;20140;-49
2021/01/31 05:29:50;;;;;;;25.55;11.23;;;;;;;-3.76;89.02;97977.69;3439646;28;20058;-48
2021/01/31 05:31:35;;;;;;;37.40;14.70;;;;;;;-3.76;89.10;97982.75;3438163;28;20057;-47
2021/01/31 05:33:18;;;;;;;23.48;8.65;;;;;;;-3.77;89.06;97994.53;3440364;28;20046;-47
2021/01/31 05:35:00;;;;;;;21.98;10.82;;;;;;;-3.79;89.10;97988.53;3438938;28;20598;-47
2021/01/31 05:36:58;;;;;;;29.23;11.27;;;;;;;-3.79;88.89;97995.28;3441368;28;20097;-48
2021/01/31 05:38:42;;;;;;;27.67;11.30;;;;;;;-3.78;89.06;97997.88;3438765;28;20057;-48
2021/01/31 05:40:30;;;;;;;21.58;10.40;;;;;;;-3.77;88.96;98003.81;3439706;28;20089;-47
2021/01/31 05:42:16;;;;;;;20.27;9.65;;;;;;;-3.77;88.80;98004.66;3440690;28;20050;-52
2021/01/31 05:44:00;;;;;;;25.90;12.10;;;;;;;-3.75;88.80;98007.28;3437965;28;20042;-51
2021/01/31 05:45:44;;;;;;;24.20;10.55;;;;;;;-3.76;88.69;98008.94;3441228;28;20073;-50
2021/01/31 05:47:34;;;;;;;26.20;10.88;;;;;;;-3.74;88.62;98010.69;3439027;28;20061;-49
2021/01/31 05:49:41;;;;;;;27.15;11.73;;;;;;;-3.74;88.98;98018.28;3439807;28;20042;-52
2021/01/31 05:51:31;;;;;;;23.42;11.32;;;;;;;-3.72;88.94;98027.69;3427635;28;20117;-49
2021/01/31 05:53:30;;;;;;;21.98;10.13;;;;;;;-3.71;88.80;98028.53;3437037;28;20046;-49
2021/01/31 05:55:26;;;;;;;24.33;11.07;;;;;;;-3.70;88.54;98026.06;3439723;28;20046;-51
2021/01/31 05:57:22;;;;;;;25.75;10.90;;;;;;;-3.69;88.73;98021.91;3440464;28;20061;-50
2021/01/31 05:59:10;;;;;;;23.02;9.57;;;;;;;-3.68;88.54;98033.75;3438020;28;20069;-51
2021/01/31 06:01:06;;;;;;;25.08;12.05;;;;;;;-3.67;88.75;98033.81;3440799;28;20050;-51
2021/01/31 06:02:59;;;;;;;24.90;10.18;;;;;;;-3.65;88.48;98042.34;3438815;28;20599;-52
2021/01/31 06:04:41;;;;;;;25.77;10.30;;;;;;;-3.64;88.44;98048.28;3437419;28;20050;-49
2021/01/31 06:06:24;;;;;;;21.42;9.93;;;;;;;-3.63;88.21;98047.47;3440660;28;20046;-49
2021/01/31 06:08:09;;;;;;;26.38;11.65;;;;;;;-3.62;88.18;98036.56;3437631;28;20070;-52
2021/01/31 06:09:53;;;;;;;23.88;10.15;;;;;;;-3.61;88.52;98048.41;3440223;28;20198;-49
2021/01/31 06:11:34;;;;;;;19.17;9.30;;;;;;;-3.59;88.29;98047.69;3438712;28;20718;-50
2021/01/31 06:13:21;;;;;;;20.83;9.70;;;;;;;-3.58;88.13;98057.00;3439587;28;20101;-49
2021/01/31 06:15:07;;;;;;;24.80;10.57;;;;;;;-3.55;87.97;98056.28;3428944;28;20054;-51
2021/01/31 06:16:59;;;;;;;26.05;11.10;;;;;;;-3.53;87.71;98061.44;3435026;28;20534;-47
2021/01/31 06:18:46;;;;;;;27.10;10.70;;;;;;;-3.52;87.73;98060.59;3435036;28;20345;-47
2021/01/31 06:20:31;;;;;;;22.65;9.32;;;;;;;-3.51;87.81;98067.41;3440894;28;20573;-47
2021/01/31 06:22:14;;;;;;;18.95;8.63;;;;;;;-3.51;87.69;98070.81;3440784;28;20054;-47
2021/01/31 06:23:55;;;;;;;24.95;10.20;;;;;;;-3.49;87.89;98081.03;3442579;28;20073;-47
2021/01/31 06:25:39;;;;;;;24.67;11.50;;;;;;;-3.50;87.77;98082.69;3440386;28;20121;-47
2021/01/31 06:27:30;;;;;;;20.88;10.88;;;;;;;-3.50;87.87;98089.41;3442645;28;20059;-48
2021/01/31 06:29:20;;;;;;;21.00;9.80;;;;;;;-3.50;87.75;98084.34;3439868;28;20529;-47
2021/01/31 06:31:10;;;;;;;20.33;9.20;;;;;;;-3.50;87.78;98094.47;3438961;28;20046;-47
2021/01/31 06:32:53;;;;;;;24.63;9.60;;;;;;;-3.50;87.77;98097.03;3429311;28;20074;-47
2021/01/31 06:34:35;;;;;;;25.25;10.35;;;;;;;-3.49;87.92;98093.69;3437455;28;20058;-51
2021/01/31 06:36:28;;;;;;;26.20;12.40;;;;;;;-3.50;87.96;98094.47;3441784;28;20546;-50
2021/01/31 06:38:24;;;;;;;24.83;10.68;;;;;;;-3.48;88.09;98093.75;3440307;28;20065;-49
2021/01/31 06:40:17;;;;;;;20.38;10.20;;;;;;;-3.47;87.81;98097.16;3440354;28;20145;-49
2021/01/31 06:42:10;;;;;;;20.75;8.95;;;;;;;-3.45;87.76;98090.47;3442350;28;20050;-52
2021/01/31 06:44:03;;;;;;;20.13;9.70;;;;;;;-3.45;87.79;98098.09;3439286;28;20050;-51
2021/01/31 06:45:57;;;;;;;24.58;11.63;;;;;;;-3.43;87.81;98092.28;3432217;28;20046;-49
2021/01/31 06:47:56;;;;;;;26.83;11.98;;;;;;;-3.40;87.90;98097.47;3441897;28;20058;-49
2021/01/31 06:49:53;;;;;;;25.08;11.05;;;;;;;-3.37;87.75;98099.28;3439492;28;20551;-53
2021/01/31 06:51:57;;;;;;;22.10;10.35;;;;;;;-3.34;87.90;98091.81;3439348;28;20101;-50
2021/01/31 06:54:14;;;;;;;26.88;10.98;;;;;;;-3.31;87.75;98099.53;3441328;28;20046;-50
2021/01/31 06:56:31;;;;;;;27.55;10.80;;;;;;;-3.28;87.84;98102.22;3439305;28;20065;-52
2021/01/31 06:58:35;;;;;;;28.33;12.07;;;;;;;-3.25;87.79;98115.03;3438779;28;20061;-46
2021/01/31 07:00:34;;;;;;;28.38;12.30;;;;;;;-3.23;88.02;98113.41;3440505;28;20467;-48
2021/01/31 07:02:49;;;;;;;29.75;13.05;;;;;;;-3.23;87.87;98113.41;3440554;28;20050;-46
2021/01/31 07:05:02;;;;;;;28.65;12.02;;;;;;;-3.19;87.95;98127.09;3439916;28;20050;-47
2021/01/31 07:07:17;;;;;;;30.35;12.32;;;;;;;-3.16;88.03;98136.50;3422789;28;20046;-47
2021/01/31 07:09:10;;;;;;;27.77;10.88;;;;;;;-3.15;87.87;98138.22;3440433;28;20046;-46
2021/01/31 07:11:08;;;;;;;28.38;11.60;;;;;;;-3.14;87.89;98139.97;3440678;28;20050;-48
2021/01/31 07:13:02;;;;;;;34.25;13.68;;;;;;;-3.13;88.08;98145.13;3437345;28;20057;-51
2021/01/31 07:14:48;;;;;;;;;;;;;;;-3.11;87.87;98146.06;3441115;28;20046;-47
2021/01/31 07:16:43;;;;;;;37.92;13.48;;;;;;;-3.10;88.03;98149.44;3439887;28;19933;-47
2021/01/31 07:18:27;;;;;;;34.10;13.65;;;;;;;-3.07;87.71;98152.13;3439229;28;20496;-47
2021/01/31 07:20:17;;;;;;;33.03;13.23;;;;;;;-3.04;87.95;98155.66;3439620;28;20583;-51
2021/01/31 07:22:04;;;;;;;29.58;12.27;;;;;;;-3.01;87.71;98162.50;3439305;28;20061;-47
2021/01/31 07:23:50;;;;;;;34.20;13.15;;;;;;;-2.98;87.56;98154.19;3441117;28;20086;-47
2021/01/31 07:25:37;;;;;;;32.10;13.43;;;;;;;-2.95;87.10;98160.25;3439530;28;20062;-51
2021/01/31 07:27:23;;;;;;;35.85;14.25;;;;;;;-2.93;87.25;98163.72;3439347;28;20509;-52
2021/01/31 07:29:12;;;;;;;33.42;14.15;;;;;;;-2.92;87.17;98160.34;3441597;28;20081;-48
2021/01/31 07:31:03;;;;;;;29.45;12.40;;;;;;;-2.89;87.14;98162.16;3436635;28;20113;-52
2021/01/31 07:32:52;;;;;;;29.75;13.68;;;;;;;-2.85;87.14;98175.06;3440140;28;20053;-49
2021/01/31 07:34:39;;;;;;;29.80;13.38;;;;;;;-2.83;86.39;98175.09;3440974;28;20050;-50
2021/01/31 07:36:25;;;;;;;33.58;12.18;;;;;;;-2.83;86.58;98176.00;3438148;28;20486;-49
2021/01/31 07:38:15;;;;;;;32.33;12.13;;;;;;;-2.82;86.47;98181.91;3441277;28;20435;-50
2021/01/31 07:40:04;;;;;;;31.70;13.13;;;;;;;-2.82;86.30;98187.00;3439037;28;20058;-52
2021/01/31 07:41:51;;;;;;;33.45;15.10;;;;;;;-2.83;86.08;98196.28;3439811;28;20109;-53
2021/01/31 07:43:36;;;;;;;27.77;12.90;;;;;;;-2.82;85.99;98197.16;3441164;28;20054;-50
2021/01/31 07:45:21;;;;;;;25.23;12.43;;;;;;;-2.84;85.89;98197.06;3437559;28;20050;-52
2021/01/31 07:47:03;;;;;;;34.28;14.90;;;;;;;-2.81;86.56;98206.50;3441567;28;20081;-47
2021/01/31 07:49:06;;;;;;;34.42;14.60;;;;;;;-2.79;86.17;98214.16;3438892;28;20082;-52
2021/01/31 07:50:48;;;;;;;31.70;15.75;;;;;;;-2.77;86.00;98226.13;3439831;28;20050;-53
2021/01/31 07:52:45;;;;;;;30.23;12.32;;;;;;;-2.78;85.86;98211.69;3438747;28;20120;-49
2021/01/31 07:54:28;;;;;;;30.58;13.23;;;;;;;-2.78;85.66;98221.84;3438270;28;20053;-49
2021/01/31 07:56:32;;;;;;;35.15;14.15;;;;;;;-2.75;85.57;98221.97;3440115;28;20046;-53
2021/01/31 07:58:38;;;;;;;35.60;14.32;;;;;;;-2.72;85.87;98224.66;3438933;28;20053;-50
2021/01/31 08:00:22;;;;;;;32.78;13.50;;;;;;;-2.68;85.51;98235.81;3438070;28;20415;-50
2021/01/31 08:02:08;;;;;;;29.63;11.10;;;;;;;-2.65;84.94;98229.19;3440545;28;20593;-51
2021/01/31 08:03:53;;;;;;;25.83;11.57;;;;;;;-2.62;84.32;98236.03;3438876;28;20050;-52
2021/01/31 08:05:53;;;;;;;22.20;10.18;;;;;;;-2.59;83.37;98241.25;3439373;28;20077;-50
2021/01/31 08:08:01;;;;;;;31.33;12.13;;;;;;;-2.53;83.68;98233.91;3439312;28;20053;-52
2021/01/31 08:09:54;;;;;;;19.17;8.30;;;;;;;-2.48;81.18;98237.47;3438190;28;20081;-50
2021/01/31 08:11:56;;;;;;;20.77;9.90;;;;;;;-2.39;81.63;98246.28;3433806;28;20519;-50
2021/01/31 08:13:41;;;;;;;25.27;9.63;;;;;;;-2.31;81.03;98238.19;3439476;28;20058;-50
2021/01/31 08:15:40;;;;;;;24.30;11.52;;;;;;;-2.19;81.26;98231.88;3438097;28;20061;-51
2021/01/31 08:17:48;;;;;;;21.02;9.02;;;;;;;-2.12;79.82;98233.88;3438554;28;20057;-51